Terminal Aerodrome Forecast
Issued by NWS

Home | Current Version | Previous Version | Text Only | Print | Product List | Glossary On
Versions: 1 2 3 4 5 6 7 8 9 10 11 12 13 14 15 16 17 18 19 20 21 22 23
000
FTAK31 PAFA 190823 AAB
TAFASC
TAF AMD
PASC 190823Z 1908/2006 25012KT P6SM -SN BKN040
     FM191200 25014KT 5SM -SHSN BR BKN025
     FM192200 24012KT P6SM SCT025 BKN050=

USA.gov is the U.S. government's official web portal to all federal, state and local government web resources and services.